Aeroporto :
LOGIN :

Iscrizione | Disclaimer

   EN    FR    IT 

 










Sommario :    VFR   VFR Marginale   IFR   IFR Intensivo   IFR Molto Intensivo
Visibilità : 
Base nubi : 
>= 8 km
>= 3000ft
5 / 8 km
1000 / 3000 ft
1500m / 5 km
500 / 1000 ft
800 / 1500m
200 / 500 ft
< 800m
< 200 ft
Simboli :   Temporali  Nebbia  Neve Forte  Precipitazioni Forti  Vento > 20 kt
SIGMETs :   Varie  Temporali  Ghiacco  Turbolenza  Onda orograficha  Ceneri Vulcaniche







- Altitudine del aeroporto : 295 ft
- Codice IATA : ORN


DAOO - Es senia - Oran

ULTIMO METAR :
  • 171200Z 30004KT 240V330 9999 FEW023TCU BKN026 23/17 Q1015

METARs OBSOLETI :
  • 171130Z 24006KT 9999 FEW023TCU BKN026 20/16 Q1015
  • 171100Z 20007KT 9999 FEW023TCU BKN026 20/18 Q1015
  • 171030Z 21007KT 9999 SCT020 FEW023TCU 20/16 Q1015
  • 171000Z 20003KT 9999 SCT020 FEW023TCU 20/17 Q1015
  • 170930Z 24005KT 9999 SCT020 FEW023TCU SCT026 19/18 Q1015

TAF TAF DAOO
Valido dal 17 a 12 ore il 18 a 12 ore UTC


171100Z 1712/1812 20010KT 9999 FEW023TCU BKN026
BECMG 1713/1715 34014KT
PROB30
TEMPO 1715/1720 -TSRA FEW026CB
BECMG 1720/1722 6000 SCT010 BKN020
Nessun NOTAM noto per questo aeroporto.
1 SIGMET conosciuto per la FIR Alger (DAAA) :
 
Temporali affogati
DAAA SIGMET 8 VALID 171100/171400 DAAA ALGER FIR EMBD TS OBS E OF LINE N3648 E00627 - N3419 E00600 TOP FL380 MOV NE NC=



MetMap, La meteo Aeronautica in un colpo d'occhio ! - Copyright ORBIFLY Dicembre 2007 - Disclaimer

ORBIFLY MET'MAP TEAM :

Programmazione e sviluppo : Alexandra Zaïnal
Concezione e sviluppo : Baudouin d'Aumeries
Co-Programmazione e sviluppo : Marc-Olivier Méhu
Supporto tecnico e logistico : Manuel Goepfert
Aiuto per la traduzione : Arnaldo La Scala

Contatto : metmap@orbifly.com




FONTI E CREDITI :

   NOAA